createdAt,value
2019-01-30T00:02:11.290Z,6.62
2019-01-30T00:04:43.240Z,5.40
2019-01-30T00:07:15.508Z,7.15
2019-01-30T00:09:49.475Z,6.60
2019-01-30T00:12:21.317Z,7.92
2019-01-30T00:14:55.624Z,5.17
2019-01-30T00:17:29.907Z,6.35
2019-01-30T00:20:01.712Z,6.08
2019-01-30T00:22:33.532Z,6.60
2019-01-30T00:25:07.931Z,8.15
2019-01-30T00:27:42.734Z,7.83
2019-01-30T00:30:20.470Z,8.43
2019-01-30T00:32:54.758Z,6.80
2019-01-30T00:35:29.695Z,7.65
2019-01-30T00:38:02.570Z,5.95
2019-01-30T00:40:34.385Z,8.23
2019-01-30T00:43:07.846Z,8.45
2019-01-30T00:45:42.442Z,7.00
2019-01-30T00:48:14.266Z,6.22
2019-01-30T00:50:46.085Z,10.10
2019-01-30T00:53:17.916Z,8.05
2019-01-30T00:55:53.097Z,10.43
2019-01-30T00:58:30.751Z,6.62
2019-01-30T01:01:03.755Z,7.80
2019-01-30T01:03:35.700Z,7.20
2019-01-30T01:06:10.544Z,7.67
2019-01-30T01:08:48.776Z,7.75
2019-01-30T01:11:20.614Z,8.13
2019-01-30T01:13:54.912Z,6.83
2019-01-30T01:16:29.232Z,6.28
2019-01-30T01:19:03.847Z,6.85
2019-01-30T01:24:21.929Z,7.67
2019-01-30T01:26:53.772Z,8.08
2019-01-30T01:29:25.580Z,9.63
2019-01-30T01:31:57.401Z,7.05
2019-01-30T01:34:29.264Z,7.00
2019-01-30T01:37:01.050Z,8.03
2019-01-30T01:39:36.283Z,8.05
2019-01-30T01:42:08.048Z,6.25
2019-01-30T01:44:39.856Z,7.03
2019-01-30T01:47:11.683Z,6.72
2019-01-30T01:49:43.471Z,6.10
2019-01-30T01:52:16.687Z,6.83
2019-01-30T01:54:48.488Z,9.55
2019-01-30T01:57:22.387Z,8.03
2019-01-30T01:59:54.191Z,5.60
2019-01-30T02:02:29.878Z,10.90
2019-01-30T02:05:05.214Z,7.40
2019-01-30T02:07:44.488Z,7.22
2019-01-30T02:10:19.720Z,8.83
2019-01-30T02:12:51.624Z,6.25
2019-01-30T02:15:24.073Z,8.85
2019-01-30T02:17:55.875Z,8.75
2019-01-30T02:20:32.408Z,8.05
2019-01-30T02:23:06.133Z,8.78
2019-01-30T02:25:39.684Z,8.93
2019-01-30T02:28:17.810Z,8.95
2019-01-30T02:30:49.619Z,8.45
2019-01-30T02:33:25.778Z,7.97
2019-01-30T02:36:02.292Z,10.10
2019-01-30T02:38:34.097Z,8.30
2019-01-30T02:41:07.325Z,8.80
2019-01-30T02:43:39.122Z,9.93
2019-01-30T02:46:10.937Z,8.28
2019-01-30T02:48:42.937Z,7.53
2019-01-30T02:51:14.708Z,7.90
2019-01-30T02:53:46.495Z,8.50
2019-01-30T02:56:21.271Z,8.40
2019-01-30T02:58:55.576Z,10.58
2019-01-30T03:01:27.406Z,6.90
2019-01-30T03:04:00.783Z,8.78
2019-01-30T03:06:32.578Z,7.80
2019-01-30T03:09:06.500Z,9.48
2019-01-30T03:11:38.315Z,7.05
2019-01-30T03:14:10.129Z,8.60
2019-01-30T03:16:44.850Z,9.00
2019-01-30T03:19:16.678Z,8.20
2019-01-30T03:21:48.502Z,6.62
2019-01-30T03:24:20.343Z,9.68
2019-01-30T03:26:52.192Z,7.37
2019-01-30T03:29:24.023Z,8.75
2019-01-30T03:31:55.836Z,8.33
2019-01-30T03:34:27.649Z,7.30
2019-01-30T03:36:59.459Z,6.92
2019-01-30T03:39:31.254Z,9.63
2019-01-30T03:42:03.072Z,8.90
2019-01-30T03:44:34.902Z,8.43
2019-01-30T03:47:06.708Z,8.25
2019-01-30T03:49:42.475Z,8.93
2019-01-30T03:52:14.284Z,8.40
2019-01-30T03:54:46.102Z,8.68
2019-01-30T03:57:17.922Z,10.25
2019-01-30T03:59:49.722Z,9.75
2019-01-30T04:02:21.654Z,7.53
2019-01-30T04:04:53.613Z,6.75
2019-01-30T04:07:25.420Z,6.58
2019-01-30T04:09:57.235Z,7.92
2019-01-30T04:12:29.056Z,5.90
2019-01-30T04:15:00.859Z,6.30
2019-01-30T04:17:32.696Z,6.78
2019-01-30T04:20:05.109Z,6.90
2019-01-30T04:22:36.954Z,6.90
2019-01-30T04:25:09.985Z,6.65
2019-01-30T04:27:41.784Z,7.90
2019-01-30T04:30:22.523Z,9.40
2019-01-30T04:32:55.726Z,7.60
2019-01-30T04:35:31.827Z,8.78
2019-01-30T04:38:03.638Z,7.67
2019-01-30T04:40:35.458Z,6.92
2019-01-30T04:43:07.271Z,7.83
2019-01-30T04:45:39.123Z,7.17
2019-01-30T04:48:10.940Z,7.03
2019-01-30T04:50:42.779Z,8.20
2019-01-30T04:53:14.575Z,9.40
2019-01-30T04:55:46.390Z,7.35
2019-01-30T04:58:18.300Z,9.58
2019-01-30T05:03:33.697Z,8.08
2019-01-30T05:06:05.791Z,15.90
2019-01-30T05:08:37.818Z,14.13
2019-01-30T05:11:09.637Z,8.13
2019-01-30T05:13:41.455Z,8.95
2019-01-30T05:16:13.278Z,7.62
2019-01-30T05:18:45.090Z,7.15
2019-01-30T05:21:16.934Z,7.20
2019-01-30T05:23:48.725Z,7.72
2019-01-30T05:26:20.680Z,9.18
2019-01-30T05:28:52.545Z,8.18
2019-01-30T05:31:24.369Z,9.58
2019-01-30T05:33:56.190Z,8.63
2019-01-30T05:36:28.051Z,9.28
2019-01-30T05:38:59.895Z,7.45
2019-01-30T05:41:37.267Z,8.05
2019-01-30T05:44:09.093Z,8.40
2019-01-30T05:46:43.894Z,8.53
2019-01-30T05:49:15.846Z,9.43
2019-01-30T05:51:47.827Z,7.75
2019-01-30T05:54:19.648Z,13.72
2019-01-30T05:56:51.488Z,11.53
2019-01-30T05:59:23.309Z,11.03
2019-01-30T06:01:55.168Z,10.00
2019-01-30T06:04:29.751Z,12.30
2019-01-30T06:07:01.574Z,8.63
2019-01-30T06:09:33.395Z,8.85
2019-01-30T06:12:05.197Z,8.60
2019-01-30T06:14:37.098Z,10.40
2019-01-30T06:17:09.764Z,9.38
2019-01-30T06:19:41.704Z,15.80
2019-01-30T06:22:13.563Z,15.72
2019-01-30T06:24:45.374Z,7.10
2019-01-30T06:27:18.850Z,9.10
2019-01-30T06:29:50.688Z,7.72
2019-01-30T06:32:24.615Z,6.87
2019-01-30T06:34:56.829Z,10.60
2019-01-30T06:37:28.676Z,7.80
2019-01-30T06:40:00.494Z,7.72
2019-01-30T06:42:32.335Z,6.62
2019-01-30T06:45:04.574Z,7.05
2019-01-30T06:47:36.395Z,8.63
2019-01-30T06:50:09.690Z,7.22
2019-01-30T06:52:41.498Z,7.55
2019-01-30T06:55:13.317Z,7.90
2019-01-30T06:57:45.126Z,6.97
2019-01-30T07:00:20.115Z,6.45
2019-01-30T07:02:52.122Z,7.67
2019-01-30T07:05:23.962Z,7.50
2019-01-30T07:07:55.794Z,6.00
2019-01-30T07:10:29.349Z,9.23
2019-01-30T07:13:01.201Z,7.17
2019-01-30T07:15:32.992Z,6.45
2019-01-30T07:18:05.170Z,6.90
2019-01-30T07:20:36.986Z,6.70
2019-01-30T07:23:08.830Z,7.17
2019-01-30T07:25:40.632Z,6.60
2019-01-30T07:28:12.443Z,5.67
2019-01-30T07:30:44.289Z,6.60
2019-01-30T07:33:16.604Z,9.45
2019-01-30T07:35:48.414Z,6.47
2019-01-30T07:38:20.436Z,7.60
2019-01-30T07:40:52.265Z,10.23
2019-01-30T07:43:27.601Z,6.15
2019-01-30T07:45:59.141Z,6.60
2019-01-30T07:48:35.369Z,6.55
2019-01-30T07:51:08.923Z,7.30
2019-01-30T07:53:43.719Z,5.85
2019-01-30T07:56:15.698Z,7.58
2019-01-30T07:58:47.526Z,8.30
2019-01-30T08:01:22.299Z,9.45
2019-01-30T08:03:57.109Z,7.20
2019-01-30T08:06:28.922Z,7.35
2019-01-30T08:09:03.549Z,6.72
2019-01-30T08:11:38.130Z,8.30
2019-01-30T08:14:11.264Z,7.75
2019-01-30T08:16:43.129Z,8.78
2019-01-30T08:19:18.029Z,7.92
2019-01-30T08:21:49.841Z,8.05
2019-01-30T08:24:23.453Z,7.80
2019-01-30T08:26:55.464Z,8.15
2019-01-30T08:29:32.968Z,6.00
2019-01-30T08:32:06.381Z,9.10
2019-01-30T08:34:38.294Z,8.00
2019-01-30T08:37:10.204Z,6.58
2019-01-30T08:39:43.320Z,6.72
2019-01-30T08:42:15.696Z,10.13
2019-01-30T08:44:49.947Z,7.40
2019-01-30T08:47:26.063Z,6.45
2019-01-30T08:49:58.004Z,8.20
2019-01-30T08:52:29.843Z,7.35
2019-01-30T08:55:01.689Z,8.45
2019-01-30T08:57:33.543Z,5.65
2019-01-30T09:00:15.530Z,7.22
2019-01-30T09:02:48.779Z,7.42
2019-01-30T09:05:20.857Z,7.17
2019-01-30T09:07:55.695Z,7.00
2019-01-30T09:10:28.325Z,6.55
2019-01-30T09:13:05.340Z,7.53
2019-01-30T09:15:37.227Z,6.72
2019-01-30T09:18:14.641Z,6.47
2019-01-30T09:20:49.038Z,7.95
2019-01-30T09:23:22.531Z,7.25
2019-01-30T09:25:55.745Z,6.53
2019-01-30T09:28:27.549Z,7.47
2019-01-30T09:31:03.859Z,8.20
2019-01-30T09:33:36.771Z,7.05
2019-01-30T09:36:08.710Z,8.38
2019-01-30T09:38:40.534Z,6.12
2019-01-30T09:41:12.486Z,5.85
2019-01-30T09:43:44.335Z,5.67
2019-01-30T09:46:28.903Z,6.47
2019-01-30T09:49:00.754Z,6.80
2019-01-30T09:51:33.758Z,5.72
2019-01-30T09:54:07.139Z,11.68
2019-01-30T09:56:40.732Z,5.55
2019-01-30T09:59:12.468Z,7.60
2019-01-30T10:01:45.816Z,5.40
2019-01-30T10:04:19.547Z,5.87
2019-01-30T10:06:59.057Z,6.03
2019-01-30T10:09:30.893Z,6.53
2019-01-30T10:12:03.940Z,5.80
2019-01-30T10:14:43.110Z,5.75
2019-01-30T10:17:16.519Z,6.67
2019-01-30T10:19:51.110Z,5.58
2019-01-30T10:22:24.281Z,5.80
2019-01-30T10:24:55.818Z,8.30
2019-01-30T10:27:27.670Z,6.37
2019-01-30T10:30:01.130Z,6.25
2019-01-30T10:32:34.086Z,6.10
2019-01-30T10:35:06.990Z,5.93
2019-01-30T10:37:38.840Z,5.65
2019-01-30T10:40:14.338Z,5.50
2019-01-30T10:42:47.325Z,6.33
2019-01-30T10:45:19.132Z,10.07
2019-01-30T10:47:55.040Z,4.83
2019-01-30T10:50:28.397Z,3.47
2019-01-30T10:53:03.369Z,4.15
2019-01-30T10:55:36.607Z,5.77
2019-01-30T10:58:15.166Z,4.10
2019-01-30T11:00:50.582Z,2.77
2019-01-30T11:03:24.503Z,1.60
2019-01-30T11:05:59.300Z,1.75
2019-01-30T11:08:34.458Z,2.27
2019-01-30T11:11:07.905Z,1.73
2019-01-30T11:13:39.911Z,1.17
2019-01-30T11:16:13.427Z,1.30
2019-01-30T11:18:49.447Z,2.10
2019-01-30T11:21:29.345Z,2.10
2019-01-30T11:24:03.863Z,2.58
2019-01-30T11:26:36.498Z,2.42
2019-01-30T11:29:10.269Z,2.65
2019-01-30T11:31:46.525Z,2.60
2019-01-30T11:34:18.328Z,2.37
2019-01-30T11:36:53.198Z,2.33
2019-01-30T11:39:25.007Z,4.70
2019-01-30T11:42:02.905Z,1.77
2019-01-30T11:44:38.102Z,6.87
2019-01-30T11:47:09.967Z,1.80
2019-01-30T11:49:46.434Z,1.32
2019-01-30T11:52:21.352Z,1.10
2019-01-30T11:54:55.037Z,1.15
2019-01-30T11:57:28.256Z,1.87
2019-01-30T12:00:03.186Z,3.83
2019-01-30T12:02:36.643Z,12.07
2019-01-30T12:05:13.340Z,2.37
2019-01-30T12:07:45.171Z,3.50
2019-01-30T12:10:19.682Z,1.80
2019-01-30T12:12:51.703Z,2.65
2019-01-30T12:15:23.597Z,2.40
2019-01-30T12:17:59.642Z,4.80
2019-01-30T12:20:31.485Z,1.75
2019-01-30T12:23:06.223Z,6.40
2019-01-30T12:28:38.998Z,1.70
2019-01-30T12:31:10.860Z,2.60
2019-01-30T12:33:45.895Z,2.35
2019-01-30T12:36:17.734Z,1.80
2019-01-30T12:38:54.731Z,1.50
2019-01-30T12:41:27.945Z,1.35
2019-01-30T12:44:01.277Z,3.35
2019-01-30T12:46:40.453Z,8.65
2019-01-30T12:49:15.362Z,1.00
2019-01-30T12:51:50.029Z,1.37
2019-01-30T12:54:21.847Z,1.10
2019-01-30T12:56:55.413Z,1.00
2019-01-30T12:59:28.925Z,1.20
2019-01-30T13:02:02.020Z,1.12
2019-01-30T13:04:38.878Z,1.35
2019-01-30T13:07:08.807Z,3.30
2019-01-30T13:09:52.508Z,2.02
2019-01-30T13:12:24.321Z,1.37
2019-01-30T13:15:05.926Z,2.00
2019-01-30T13:17:42.427Z,2.10
2019-01-30T13:20:20.125Z,1.75
2019-01-30T13:22:55.169Z,1.00
2019-01-30T13:25:36.884Z,2.95
2019-01-30T13:28:11.543Z,1.20
2019-01-30T13:30:43.916Z,1.30
2019-01-30T13:33:18.597Z,1.92
2019-01-30T13:35:56.004Z,3.05
2019-01-30T13:38:30.586Z,1.20
2019-01-30T13:41:03.484Z,3.55
2019-01-30T13:43:36.813Z,2.58
2019-01-30T13:46:10.307Z,3.00
2019-01-30T13:48:42.134Z,2.30
2019-01-30T13:51:13.962Z,2.37
2019-01-30T13:53:45.822Z,2.10
2019-01-30T13:56:17.678Z,2.20
2019-01-30T13:58:50.572Z,1.17
2019-01-30T14:01:24.764Z,1.32
2019-01-30T14:03:56.620Z,1.22
2019-01-30T14:06:28.636Z,2.85
2019-01-30T14:09:03.633Z,2.77
2019-01-30T14:11:36.673Z,2.02
2019-01-30T14:14:08.509Z,2.50
2019-01-30T14:16:40.497Z,1.85
2019-01-30T14:19:12.323Z,1.35
2019-01-30T14:21:44.195Z,7.05
2019-01-30T14:24:16.097Z,2.95
2019-01-30T14:26:47.960Z,1.85
2019-01-30T14:29:19.792Z,1.15
2019-01-30T14:31:51.609Z,1.15
2019-01-30T14:34:23.520Z,1.40
2019-01-30T14:36:55.306Z,1.10
2019-01-30T14:39:28.240Z,1.60
2019-01-30T14:42:00.077Z,2.08
2019-01-30T14:44:31.906Z,1.40
2019-01-30T14:47:03.751Z,1.15
2019-01-30T14:49:35.594Z,1.75
2019-01-30T14:52:07.397Z,1.98
2019-01-30T14:54:39.272Z,1.45
2019-01-30T14:57:11.121Z,3.95
2019-01-30T14:59:44.107Z,3.35
2019-01-30T15:02:15.950Z,1.30
2019-01-30T15:04:47.806Z,1.27
2019-01-30T15:07:28.835Z,1.72
2019-01-30T15:09:53.233Z,1.75
2019-01-30T15:12:25.121Z,1.20
2019-01-30T15:14:56.943Z,4.50
2019-01-30T15:17:28.783Z,2.10
2019-01-30T15:20:00.659Z,1.35
2019-01-30T15:22:32.463Z,1.17
2019-01-30T15:25:04.884Z,1.65
2019-01-30T15:27:36.742Z,1.60
2019-01-30T15:30:14.217Z,1.95
2019-01-30T15:32:46.083Z,1.47
2019-01-30T15:35:18.133Z,2.47
2019-01-30T15:37:50.023Z,2.42
2019-01-30T15:40:25.858Z,1.65
2019-01-30T15:42:59.317Z,1.90
2019-01-30T15:45:31.211Z,2.70
2019-01-30T15:48:03.072Z,1.82
2019-01-30T15:50:36.031Z,1.90
2019-01-30T15:53:15.085Z,5.40
2019-01-30T15:55:47.046Z,1.85
2019-01-30T15:58:21.693Z,1.85
2019-01-30T16:01:07.664Z,1.72
2019-01-30T16:03:39.536Z,1.62
2019-01-30T16:06:11.400Z,2.72
2019-01-30T16:08:43.250Z,3.65
2019-01-30T16:11:18.193Z,3.00
2019-01-30T16:13:53.056Z,2.20
2019-01-30T16:16:24.912Z,1.98
2019-01-30T16:18:56.747Z,3.02
2019-01-30T16:21:31.598Z,2.25
2019-01-30T16:24:03.436Z,2.33
2019-01-30T16:26:35.315Z,2.60
2019-01-30T16:29:10.244Z,2.05
2019-01-30T16:31:43.774Z,2.27
2019-01-30T16:34:15.601Z,2.60
2019-01-30T16:36:47.463Z,2.20
2019-01-30T16:39:24.179Z,2.10
2019-01-30T16:41:56.044Z,2.70
2019-01-30T16:44:27.888Z,5.08
2019-01-30T16:47:01.101Z,2.50
2019-01-30T16:49:34.254Z,2.83
2019-01-30T16:52:10.342Z,2.35
2019-01-30T16:54:43.875Z,2.77
2019-01-30T16:57:21.405Z,3.05
2019-01-30T16:59:53.295Z,4.05
2019-01-30T17:02:25.218Z,1.50
2019-01-30T17:04:59.791Z,2.27
2019-01-30T17:07:30.780Z,2.20
2019-01-30T17:10:02.643Z,2.55
2019-01-30T17:12:37.519Z,2.10
2019-01-30T17:15:13.757Z,2.45
2019-01-30T17:17:47.172Z,2.30
2019-01-30T17:20:26.426Z,2.65
2019-01-30T17:22:58.388Z,2.22
2019-01-30T17:25:30.231Z,3.08
2019-01-30T17:28:02.190Z,4.20
2019-01-30T17:30:38.256Z,3.05
2019-01-30T17:33:10.230Z,5.22
2019-01-30T17:35:43.089Z,6.08
2019-01-30T17:38:15.114Z,3.98
2019-01-30T17:40:47.250Z,3.60
2019-01-30T17:43:20.250Z,3.17
2019-01-30T17:45:52.069Z,2.30
2019-01-30T17:48:25.394Z,3.25
2019-01-30T17:50:57.242Z,3.67
2019-01-30T17:53:31.929Z,3.55
2019-01-30T17:56:09.008Z,2.47
2019-01-30T18:01:47.612Z,4.22
2019-01-30T18:04:19.458Z,3.87
2019-01-30T18:06:52.861Z,2.80
2019-01-30T18:09:27.592Z,2.75
2019-01-30T18:12:01.336Z,3.20
2019-01-30T18:14:33.214Z,3.95
2019-01-30T18:17:05.198Z,4.08
2019-01-30T18:19:37.284Z,2.30
2019-01-30T18:22:11.765Z,7.12
2019-01-30T18:24:45.042Z,2.58
2019-01-30T18:27:16.855Z,7.85
2019-01-30T18:29:51.040Z,3.75
2019-01-30T18:32:25.614Z,5.15
2019-01-30T18:35:00.832Z,3.75
2019-01-30T18:37:32.701Z,3.83
2019-01-30T18:40:07.321Z,2.72
2019-01-30T18:42:40.886Z,2.80
2019-01-30T18:45:22.489Z,2.58
2019-01-30T18:48:03.578Z,3.35
2019-01-30T18:50:35.706Z,5.30
2019-01-30T18:53:17.157Z,4.35
2019-01-30T18:55:48.988Z,3.60
2019-01-30T18:58:23.545Z,3.60
2019-01-30T19:00:58.148Z,3.15
2019-01-30T19:03:31.591Z,5.45
2019-01-30T19:06:06.576Z,4.25
2019-01-30T19:08:38.417Z,3.50
2019-01-30T19:11:11.891Z,4.55
2019-01-30T19:13:43.731Z,2.58
2019-01-30T19:16:33.653Z,3.85
2019-01-30T19:19:05.551Z,2.30
2019-01-30T19:21:40.456Z,3.25
2019-01-30T19:24:12.444Z,3.20
2019-01-30T19:26:46.246Z,3.72
2019-01-30T19:29:18.108Z,2.70
2019-01-30T19:31:50.003Z,3.35
2019-01-30T19:34:23.338Z,3.45
2019-01-30T19:37:03.734Z,5.70
2019-01-30T19:39:35.076Z,4.35
2019-01-30T19:42:08.719Z,4.05
2019-01-30T19:44:46.540Z,4.70
2019-01-30T19:47:18.408Z,5.22
2019-01-30T19:49:51.665Z,4.95
2019-01-30T19:52:26.786Z,3.98
2019-01-30T19:55:02.762Z,4.25
2019-01-30T19:57:38.989Z,4.70
2019-01-30T20:00:22.687Z,6.78
2019-01-30T20:02:57.609Z,4.97
2019-01-30T20:05:29.463Z,6.90
2019-01-30T20:08:07.864Z,3.60
2019-01-30T20:10:39.712Z,6.33
2019-01-30T20:13:16.152Z,3.17
2019-01-30T20:15:48.244Z,3.08
2019-01-30T20:18:20.177Z,5.25
2019-01-30T20:20:56.063Z,7.08
2019-01-30T20:23:28.795Z,4.60
2019-01-30T20:26:01.644Z,6.78
2019-01-30T20:28:33.502Z,5.08
2019-01-30T20:31:09.128Z,4.78
2019-01-30T20:33:43.727Z,4.42
2019-01-30T20:36:19.880Z,4.97
2019-01-30T20:38:52.874Z,4.08
2019-01-30T20:41:34.239Z,4.20
2019-01-30T20:44:06.253Z,4.12
2019-01-30T20:46:40.941Z,5.17
2019-01-30T20:49:13.780Z,3.72
2019-01-30T20:51:45.802Z,3.37
2019-01-30T20:54:17.766Z,3.80
2019-01-30T20:56:49.630Z,2.77
2019-01-30T20:59:21.470Z,3.75
2019-01-30T21:01:53.287Z,5.22
2019-01-30T21:04:30.415Z,4.92
2019-01-30T21:07:02.237Z,3.90
2019-01-30T21:09:34.113Z,3.65
2019-01-30T21:12:08.061Z,3.15
2019-01-30T21:14:47.228Z,2.87
2019-01-30T21:17:19.127Z,5.03
2019-01-30T21:19:50.976Z,5.67
2019-01-30T21:22:24.526Z,3.80
2019-01-30T21:24:56.429Z,4.22
2019-01-30T21:27:28.357Z,5.78
2019-01-30T21:30:01.290Z,4.72
2019-01-30T21:32:35.974Z,4.87
2019-01-30T21:35:10.432Z,3.17
2019-01-30T21:37:49.047Z,8.33
2019-01-30T21:40:17.461Z,5.33
2019-01-30T21:42:53.448Z,7.67
2019-01-30T21:45:27.384Z,3.55
2019-01-30T21:48:00.959Z,8.40
2019-01-30T21:50:36.772Z,5.35
2019-01-30T21:53:18.291Z,4.53
2019-01-30T21:55:59.454Z,3.22
2019-01-30T21:58:34.134Z,5.60
2019-01-30T22:01:06.571Z,4.80
2019-01-30T22:03:42.681Z,6.83
2019-01-30T22:06:14.522Z,2.90
2019-01-30T22:08:46.508Z,4.47
2019-01-30T22:11:26.733Z,6.97
2019-01-30T22:14:06.049Z,3.40
2019-01-30T22:16:37.855Z,5.03
2019-01-30T22:19:20.460Z,4.03
2019-01-30T22:21:52.293Z,5.37
2019-01-30T22:24:27.188Z,6.30
2019-01-30T22:27:00.505Z,6.60
2019-01-30T22:29:35.398Z,3.72
2019-01-30T22:32:07.301Z,3.35
2019-01-30T22:34:40.721Z,4.83
2019-01-30T22:37:14.980Z,5.92
2019-01-30T22:39:50.648Z,5.05
2019-01-30T22:42:23.669Z,5.47
2019-01-30T22:44:58.223Z,5.90
2019-01-30T22:47:33.292Z,6.10
2019-01-30T22:50:08.012Z,4.15
2019-01-30T22:52:39.853Z,5.00
2019-01-30T22:55:14.832Z,6.30
2019-01-30T22:57:51.400Z,9.40
2019-01-30T23:01:05.137Z,9.45
2019-01-30T23:04:31.649Z,5.42
2019-01-30T23:07:40.278Z,8.30
2019-01-30T23:11:19.024Z,6.22
2019-01-30T23:14:28.554Z,6.80
2019-01-30T23:18:02.191Z,7.25
2019-01-30T23:20:47.081Z,7.80
2019-01-30T23:24:18.316Z,8.98
2019-01-30T23:27:34.221Z,6.22
2019-01-30T23:31:23.506Z,8.38
2019-01-30T23:34:53.161Z,5.37
2019-01-30T23:38:33.996Z,4.05
2019-01-30T23:41:40.490Z,4.15
2019-01-30T23:45:01.698Z,7.60
2019-01-30T23:48:38.109Z,5.65
2019-01-30T23:51:44.166Z,9.18
2019-01-30T23:54:59.040Z,5.90
2019-01-30T23:58:08.452Z,6.83
